sensor_id;sensor_type;location;lat;lon;timestamp;temperature;humidity
69208;SHT31;70114;47.690;8.898;2023-07-02T00:01:31;17.54;84.84
69208;SHT31;70114;47.690;8.898;2023-07-02T00:03:56;17.49;84.68
69208;SHT31;70114;47.690;8.898;2023-07-02T00:06:22;17.60;84.32
69208;SHT31;70114;47.690;8.898;2023-07-02T00:08:47;17.59;84.22
69208;SHT31;70114;47.690;8.898;2023-07-02T00:11:15;17.62;83.91
69208;SHT31;70114;47.690;8.898;2023-07-02T00:13:40;17.52;84.46
69208;SHT31;70114;47.690;8.898;2023-07-02T00:16:06;17.39;83.90
69208;SHT31;70114;47.690;8.898;2023-07-02T00:18:31;17.31;84.54
69208;SHT31;70114;47.690;8.898;2023-07-02T00:21:03;17.21;84.35
69208;SHT31;70114;47.690;8.898;2023-07-02T00:23:29;17.22;84.51
69208;SHT31;70114;47.690;8.898;2023-07-02T00:25:56;17.16;84.40
69208;SHT31;70114;47.690;8.898;2023-07-02T00:28:21;17.26;84.33
69208;SHT31;70114;47.690;8.898;2023-07-02T00:30:46;17.18;84.34
69208;SHT31;70114;47.690;8.898;2023-07-02T00:33:12;17.15;84.61
69208;SHT31;70114;47.690;8.898;2023-07-02T00:35:37;17.21;84.16
69208;SHT31;70114;47.690;8.898;2023-07-02T00:38:03;17.33;83.56
69208;SHT31;70114;47.690;8.898;2023-07-02T00:40:28;17.43;83.56
69208;SHT31;70114;47.690;8.898;2023-07-02T00:42:54;17.47;82.73
69208;SHT31;70114;47.690;8.898;2023-07-02T00:45:19;17.47;82.44
69208;SHT31;70114;47.690;8.898;2023-07-02T00:47:45;17.49;82.96
69208;SHT31;70114;47.690;8.898;2023-07-02T00:50:11;17.54;82.34
69208;SHT31;70114;47.690;8.898;2023-07-02T00:52:37;17.67;81.90
69208;SHT31;70114;47.690;8.898;2023-07-02T00:55:03;17.70;81.96
69208;SHT31;70114;47.690;8.898;2023-07-02T00:57:29;17.74;82.34
69208;SHT31;70114;47.690;8.898;2023-07-02T00:59:57;17.74;82.15
69208;SHT31;70114;47.690;8.898;2023-07-02T01:02:22;17.77;82.13
69208;SHT31;70114;47.690;8.898;2023-07-02T01:04:51;17.65;82.67
69208;SHT31;70114;47.690;8.898;2023-07-02T01:07:17;17.69;82.47
69208;SHT31;70114;47.690;8.898;2023-07-02T01:09:43;17.74;82.43
69208;SHT31;70114;47.690;8.898;2023-07-02T01:12:09;17.83;82.17
69208;SHT31;70114;47.690;8.898;2023-07-02T01:14:40;17.79;82.37
69208;SHT31;70114;47.690;8.898;2023-07-02T01:17:08;17.69;82.46
69208;SHT31;70114;47.690;8.898;2023-07-02T01:19:50;17.79;82.49
69208;SHT31;70114;47.690;8.898;2023-07-02T01:22:18;17.79;82.41
69208;SHT31;70114;47.690;8.898;2023-07-02T01:24:44;17.76;82.72
69208;SHT31;70114;47.690;8.898;2023-07-02T01:27:09;17.77;82.80
69208;SHT31;70114;47.690;8.898;2023-07-02T01:29:35;17.76;82.91
69208;SHT31;70114;47.690;8.898;2023-07-02T01:32:02;17.76;83.02
69208;SHT31;70114;47.690;8.898;2023-07-02T01:34:28;17.84;82.94
69208;SHT31;70114;47.690;8.898;2023-07-02T01:36:53;17.88;82.85
69208;SHT31;70114;47.690;8.898;2023-07-02T01:39:19;17.91;82.47
69208;SHT31;70114;47.690;8.898;2023-07-02T01:41:50;17.83;82.84
69208;SHT31;70114;47.690;8.898;2023-07-02T01:44:16;17.76;83.29
69208;SHT31;70114;47.690;8.898;2023-07-02T01:46:42;17.69;83.54
69208;SHT31;70114;47.690;8.898;2023-07-02T01:49:07;17.73;83.52
69208;SHT31;70114;47.690;8.898;2023-07-02T01:51:34;17.67;83.78
69208;SHT31;70114;47.690;8.898;2023-07-02T01:53:59;17.57;84.26
69208;SHT31;70114;47.690;8.898;2023-07-02T01:56:25;17.60;84.15
69208;SHT31;70114;47.690;8.898;2023-07-02T01:58:51;17.57;84.37
69208;SHT31;70114;47.690;8.898;2023-07-02T02:01:16;17.59;84.33
69208;SHT31;70114;47.690;8.898;2023-07-02T02:03:42;17.57;84.24
69208;SHT31;70114;47.690;8.898;2023-07-02T02:06:07;17.67;84.17
69208;SHT31;70114;47.690;8.898;2023-07-02T02:08:33;17.66;84.10
69208;SHT31;70114;47.690;8.898;2023-07-02T02:10:59;17.65;84.46
69208;SHT31;70114;47.690;8.898;2023-07-02T02:13:25;17.52;84.70
69208;SHT31;70114;47.690;8.898;2023-07-02T02:15:51;17.67;84.26
69208;SHT31;70114;47.690;8.898;2023-07-02T02:18:16;17.70;84.33
69208;SHT31;70114;47.690;8.898;2023-07-02T02:20:42;17.65;84.53
69208;SHT31;70114;47.690;8.898;2023-07-02T02:23:07;17.67;84.50
69208;SHT31;70114;47.690;8.898;2023-07-02T02:25:33;17.63;84.29
69208;SHT31;70114;47.690;8.898;2023-07-02T02:27:58;17.57;84.56
69208;SHT31;70114;47.690;8.898;2023-07-02T02:30:24;17.54;84.82
69208;SHT31;70114;47.690;8.898;2023-07-02T02:32:49;17.47;84.86
69208;SHT31;70114;47.690;8.898;2023-07-02T02:35:14;17.50;84.99
69208;SHT31;70114;47.690;8.898;2023-07-02T02:37:40;17.53;84.95
69208;SHT31;70114;47.690;8.898;2023-07-02T02:40:07;17.49;84.93
69208;SHT31;70114;47.690;8.898;2023-07-02T02:42:34;17.47;84.99
69208;SHT31;70114;47.690;8.898;2023-07-02T02:44:59;17.40;85.54
69208;SHT31;70114;47.690;8.898;2023-07-02T02:47:25;17.39;85.27
69208;SHT31;70114;47.690;8.898;2023-07-02T02:49:50;17.43;85.32
69208;SHT31;70114;47.690;8.898;2023-07-02T02:52:15;17.43;85.24
69208;SHT31;70114;47.690;8.898;2023-07-02T02:54:41;17.31;85.33
69208;SHT31;70114;47.690;8.898;2023-07-02T02:57:07;17.36;85.62
69208;SHT31;70114;47.690;8.898;2023-07-02T02:59:32;17.45;84.95
69208;SHT31;70114;47.690;8.898;2023-07-02T03:01:57;17.38;84.98
69208;SHT31;70114;47.690;8.898;2023-07-02T03:04:23;17.29;85.41
69208;SHT31;70114;47.690;8.898;2023-07-02T03:06:50;17.28;84.95
69208;SHT31;70114;47.690;8.898;2023-07-02T03:09:16;17.22;85.39
69208;SHT31;70114;47.690;8.898;2023-07-02T03:11:42;17.23;85.06
69208;SHT31;70114;47.690;8.898;2023-07-02T03:14:07;17.23;84.96
69208;SHT31;70114;47.690;8.898;2023-07-02T03:16:33;17.26;84.54
69208;SHT31;70114;47.690;8.898;2023-07-02T03:18:58;17.32;84.44
69208;SHT31;70114;47.690;8.898;2023-07-02T03:21:24;17.31;84.39
69208;SHT31;70114;47.690;8.898;2023-07-02T03:23:49;17.29;84.19
69208;SHT31;70114;47.690;8.898;2023-07-02T03:26:15;17.16;84.33
69208;SHT31;70114;47.690;8.898;2023-07-02T03:28:40;17.18;83.97
69208;SHT31;70114;47.690;8.898;2023-07-02T03:31:06;17.19;83.99
69208;SHT31;70114;47.690;8.898;2023-07-02T03:33:32;17.21;83.83
69208;SHT31;70114;47.690;8.898;2023-07-02T03:35:57;17.18;83.67
69208;SHT31;70114;47.690;8.898;2023-07-02T03:38:23;17.01;83.78
69208;SHT31;70114;47.690;8.898;2023-07-02T03:40:48;17.10;83.86
69208;SHT31;70114;47.690;8.898;2023-07-02T03:43:13;17.07;83.84
69208;SHT31;70114;47.690;8.898;2023-07-02T03:45:39;17.07;83.84
69208;SHT31;70114;47.690;8.898;2023-07-02T03:48:04;17.01;83.71
69208;SHT31;70114;47.690;8.898;2023-07-02T03:50:30;16.92;83.83
69208;SHT31;70114;47.690;8.898;2023-07-02T03:52:55;16.96;83.82
69208;SHT31;70114;47.690;8.898;2023-07-02T03:55:20;16.95;83.60
69208;SHT31;70114;47.690;8.898;2023-07-02T03:57:46;16.95;83.61
69208;SHT31;70114;47.690;8.898;2023-07-02T04:00:11;17.01;83.49
69208;SHT31;70114;47.690;8.898;2023-07-02T04:02:37;17.00;83.16
69208;SHT31;70114;47.690;8.898;2023-07-02T04:05:03;16.95;82.61
69208;SHT31;70114;47.690;8.898;2023-07-02T04:07:28;16.95;82.69
69208;SHT31;70114;47.690;8.898;2023-07-02T04:09:55;17.02;82.61
69208;SHT31;70114;47.690;8.898;2023-07-02T04:12:20;16.92;82.27
69208;SHT31;70114;47.690;8.898;2023-07-02T04:14:46;17.05;81.85
69208;SHT31;70114;47.690;8.898;2023-07-02T04:17:11;16.89;81.67
69208;SHT31;70114;47.690;8.898;2023-07-02T04:19:36;16.94;81.23
69208;SHT31;70114;47.690;8.898;2023-07-02T04:22:02;16.83;81.61
69208;SHT31;70114;47.690;8.898;2023-07-02T04:24:28;16.80;81.27
69208;SHT31;70114;47.690;8.898;2023-07-02T04:26:53;16.89;81.20
69208;SHT31;70114;47.690;8.898;2023-07-02T04:29:18;16.95;81.05
69208;SHT31;70114;47.690;8.898;2023-07-02T04:31:44;16.81;81.19
69208;SHT31;70114;47.690;8.898;2023-07-02T04:34:09;16.88;81.38
69208;SHT31;70114;47.690;8.898;2023-07-02T04:36:35;16.95;80.29
69208;SHT31;70114;47.690;8.898;2023-07-02T04:39:00;16.95;80.57
69208;SHT31;70114;47.690;8.898;2023-07-02T04:41:26;16.92;80.11
69208;SHT31;70114;47.690;8.898;2023-07-02T04:43:52;16.81;80.60
69208;SHT31;70114;47.690;8.898;2023-07-02T04:46:18;16.89;80.35
69208;SHT31;70114;47.690;8.898;2023-07-02T04:48:43;17.00;79.91
69208;SHT31;70114;47.690;8.898;2023-07-02T04:51:09;16.84;80.66
69208;SHT31;70114;47.690;8.898;2023-07-02T04:53:34;16.83;79.46
69208;SHT31;70114;47.690;8.898;2023-07-02T04:55:59;16.78;80.36
69208;SHT31;70114;47.690;8.898;2023-07-02T04:58:27;16.91;79.75
69208;SHT31;70114;47.690;8.898;2023-07-02T05:00:52;16.84;79.55
69208;SHT31;70114;47.690;8.898;2023-07-02T05:03:17;16.78;79.38
69208;SHT31;70114;47.690;8.898;2023-07-02T05:05:43;16.84;79.42
69208;SHT31;70114;47.690;8.898;2023-07-02T05:08:08;16.85;78.80
69208;SHT31;70114;47.690;8.898;2023-07-02T05:10:34;16.85;77.65
69208;SHT31;70114;47.690;8.898;2023-07-02T05:12:59;16.87;78.08
69208;SHT31;70114;47.690;8.898;2023-07-02T05:15:25;16.95;77.96
69208;SHT31;70114;47.690;8.898;2023-07-02T05:17:51;16.84;78.18
69208;SHT31;70114;47.690;8.898;2023-07-02T05:20:16;16.91;77.61
69208;SHT31;70114;47.690;8.898;2023-07-02T05:22:42;16.91;78.03
69208;SHT31;70114;47.690;8.898;2023-07-02T05:25:07;16.89;78.17
69208;SHT31;70114;47.690;8.898;2023-07-02T05:27:33;16.75;77.85
69208;SHT31;70114;47.690;8.898;2023-07-02T05:29:58;16.78;78.32
69208;SHT31;70114;47.690;8.898;2023-07-02T05:32:24;16.78;77.64
69208;SHT31;70114;47.690;8.898;2023-07-02T05:34:49;16.78;77.76
69208;SHT31;70114;47.690;8.898;2023-07-02T05:37:15;16.71;77.71
69208;SHT31;70114;47.690;8.898;2023-07-02T05:39:41;16.88;77.54
69208;SHT31;70114;47.690;8.898;2023-07-02T05:42:06;16.91;77.96
69208;SHT31;70114;47.690;8.898;2023-07-02T05:44:32;17.08;77.90
69208;SHT31;70114;47.690;8.898;2023-07-02T05:46:57;17.00;77.58
69208;SHT31;70114;47.690;8.898;2023-07-02T05:49:22;17.07;77.42
69208;SHT31;70114;47.690;8.898;2023-07-02T05:51:48;17.10;77.27
69208;SHT31;70114;47.690;8.898;2023-07-02T05:54:14;16.94;77.20
69208;SHT31;70114;47.690;8.898;2023-07-02T05:56:39;16.98;77.07
69208;SHT31;70114;47.690;8.898;2023-07-02T05:59:05;17.02;77.34
69208;SHT31;70114;47.690;8.898;2023-07-02T06:01:30;17.10;77.47
69208;SHT31;70114;47.690;8.898;2023-07-02T06:03:55;17.05;77.42
69208;SHT31;70114;47.690;8.898;2023-07-02T06:06:22;17.12;77.35
69208;SHT31;70114;47.690;8.898;2023-07-02T06:08:50;17.21;77.24
69208;SHT31;70114;47.690;8.898;2023-07-02T06:11:16;17.38;76.81
69208;SHT31;70114;47.690;8.898;2023-07-02T06:13:42;17.36;77.21
69208;SHT31;70114;47.690;8.898;2023-07-02T06:16:07;17.32;77.14
69208;SHT31;70114;47.690;8.898;2023-07-02T06:18:33;17.33;77.17
69208;SHT31;70114;47.690;8.898;2023-07-02T06:20:58;17.38;77.07
69208;SHT31;70114;47.690;8.898;2023-07-02T06:23:24;17.33;77.61
69208;SHT31;70114;47.690;8.898;2023-07-02T06:25:49;17.39;76.76
69208;SHT31;70114;47.690;8.898;2023-07-02T06:28:18;17.19;76.71
69208;SHT31;70114;47.690;8.898;2023-07-02T06:30:44;17.18;76.58
69208;SHT31;70114;47.690;8.898;2023-07-02T06:33:09;17.16;76.62
69208;SHT31;70114;47.690;8.898;2023-07-02T06:35:35;17.08;76.40
69208;SHT31;70114;47.690;8.898;2023-07-02T06:38:00;17.14;76.08
69208;SHT31;70114;47.690;8.898;2023-07-02T06:40:26;17.25;76.69
69208;SHT31;70114;47.690;8.898;2023-07-02T06:42:51;17.25;76.39
69208;SHT31;70114;47.690;8.898;2023-07-02T06:45:16;17.04;77.58
69208;SHT31;70114;47.690;8.898;2023-07-02T06:47:42;17.28;77.16
69208;SHT31;70114;47.690;8.898;2023-07-02T06:50:07;17.25;76.69
69208;SHT31;70114;47.690;8.898;2023-07-02T06:52:33;17.31;76.66
69208;SHT31;70114;47.690;8.898;2023-07-02T06:54:58;17.28;76.24
69208;SHT31;70114;47.690;8.898;2023-07-02T06:57:23;17.25;76.04
69208;SHT31;70114;47.690;8.898;2023-07-02T06:59:49;17.23;75.32
69208;SHT31;70114;47.690;8.898;2023-07-02T07:02:15;17.33;75.08
69208;SHT31;70114;47.690;8.898;2023-07-02T07:04:41;17.19;74.34
69208;SHT31;70114;47.690;8.898;2023-07-02T07:07:06;17.23;74.21
69208;SHT31;70114;47.690;8.898;2023-07-02T07:09:31;17.22;74.64
69208;SHT31;70114;47.690;8.898;2023-07-02T07:11:57;17.35;74.66
69208;SHT31;70114;47.690;8.898;2023-07-02T07:14:23;17.31;75.33
69208;SHT31;70114;47.690;8.898;2023-07-02T07:16:48;17.35;73.91
69208;SHT31;70114;47.690;8.898;2023-07-02T07:19:14;17.42;73.65
69208;SHT31;70114;47.690;8.898;2023-07-02T07:21:40;17.32;72.29
69208;SHT31;70114;47.690;8.898;2023-07-02T07:24:05;17.40;72.19
69208;SHT31;70114;47.690;8.898;2023-07-02T07:26:31;17.38;72.69
69208;SHT31;70114;47.690;8.898;2023-07-02T07:28:56;17.40;71.36
69208;SHT31;70114;47.690;8.898;2023-07-02T07:31:23;17.38;70.68
69208;SHT31;70114;47.690;8.898;2023-07-02T07:33:49;17.46;71.53
69208;SHT31;70114;47.690;8.898;2023-07-02T07:36:14;17.39;71.76
69208;SHT31;70114;47.690;8.898;2023-07-02T07:38:40;17.52;71.92
69208;SHT31;70114;47.690;8.898;2023-07-02T07:41:05;17.57;71.82
69208;SHT31;70114;47.690;8.898;2023-07-02T07:43:31;17.70;70.45
69208;SHT31;70114;47.690;8.898;2023-07-02T07:45:56;17.87;70.27
69208;SHT31;70114;47.690;8.898;2023-07-02T07:48:21;17.81;70.41
69208;SHT31;70114;47.690;8.898;2023-07-02T07:50:47;17.90;69.94
69208;SHT31;70114;47.690;8.898;2023-07-02T07:53:12;17.96;69.70
69208;SHT31;70114;47.690;8.898;2023-07-02T07:55:38;18.18;69.27
69208;SHT31;70114;47.690;8.898;2023-07-02T07:58:03;18.01;68.28
69208;SHT31;70114;47.690;8.898;2023-07-02T08:00:29;18.17;69.24
69208;SHT31;70114;47.690;8.898;2023-07-02T08:02:54;18.36;68.59
69208;SHT31;70114;47.690;8.898;2023-07-02T08:05:21;18.31;68.03
69208;SHT31;70114;47.690;8.898;2023-07-02T08:07:47;18.39;69.13
69208;SHT31;70114;47.690;8.898;2023-07-02T08:10:12;18.45;68.76
69208;SHT31;70114;47.690;8.898;2023-07-02T08:12:38;18.38;67.82
69208;SHT31;70114;47.690;8.898;2023-07-02T08:15:04;18.36;67.34
69208;SHT31;70114;47.690;8.898;2023-07-02T08:17:29;18.42;67.67
69208;SHT31;70114;47.690;8.898;2023-07-02T08:19:58;18.53;68.02
69208;SHT31;70114;47.690;8.898;2023-07-02T08:22:23;18.57;67.33
69208;SHT31;70114;47.690;8.898;2023-07-02T08:24:49;18.55;67.19
69208;SHT31;70114;47.690;8.898;2023-07-02T08:27:16;18.67;67.88
69208;SHT31;70114;47.690;8.898;2023-07-02T08:29:46;18.53;67.62
69208;SHT31;70114;47.690;8.898;2023-07-02T08:32:11;18.51;66.85
69208;SHT31;70114;47.690;8.898;2023-07-02T08:34:37;18.60;68.10
69208;SHT31;70114;47.690;8.898;2023-07-02T08:37:02;18.55;66.21
69208;SHT31;70114;47.690;8.898;2023-07-02T08:39:28;18.51;67.33
69208;SHT31;70114;47.690;8.898;2023-07-02T08:41:53;18.48;67.19
69208;SHT31;70114;47.690;8.898;2023-07-02T08:44:20;18.67;67.46
69208;SHT31;70114;47.690;8.898;2023-07-02T08:46:46;18.60;66.35
69208;SHT31;70114;47.690;8.898;2023-07-02T08:49:16;18.84;65.78
69208;SHT31;70114;47.690;8.898;2023-07-02T08:51:44;19.04;65.22
69208;SHT31;70114;47.690;8.898;2023-07-02T08:54:10;19.24;65.29
69208;SHT31;70114;47.690;8.898;2023-07-02T08:56:36;19.36;64.97
69208;SHT31;70114;47.690;8.898;2023-07-02T08:59:01;19.51;65.83
69208;SHT31;70114;47.690;8.898;2023-07-02T09:01:26;19.65;64.42
69208;SHT31;70114;47.690;8.898;2023-07-02T09:03:58;19.80;63.97
69208;SHT31;70114;47.690;8.898;2023-07-02T09:06:25;19.54;63.45
69208;SHT31;70114;47.690;8.898;2023-07-02T09:08:50;19.65;63.90
69208;SHT31;70114;47.690;8.898;2023-07-02T09:11:16;19.96;63.21
69208;SHT31;70114;47.690;8.898;2023-07-02T09:13:46;19.96;63.52
69208;SHT31;70114;47.690;8.898;2023-07-02T09:16:29;19.83;62.80
69208;SHT31;70114;47.690;8.898;2023-07-02T09:18:56;19.73;62.40
69208;SHT31;70114;47.690;8.898;2023-07-02T09:21:25;19.58;63.18
69208;SHT31;70114;47.690;8.898;2023-07-02T09:23:51;19.89;62.84
69208;SHT31;70114;47.690;8.898;2023-07-02T09:26:21;20.10;62.82
69208;SHT31;70114;47.690;8.898;2023-07-02T09:28:47;20.27;62.84
69208;SHT31;70114;47.690;8.898;2023-07-02T09:31:18;20.41;61.32
69208;SHT31;70114;47.690;8.898;2023-07-02T09:33:46;20.23;61.35
69208;SHT31;70114;47.690;8.898;2023-07-02T09:36:23;20.21;61.52
69208;SHT31;70114;47.690;8.898;2023-07-02T09:38:57;20.37;61.28
69208;SHT31;70114;47.690;8.898;2023-07-02T09:41:26;20.54;61.23
69208;SHT31;70114;47.690;8.898;2023-07-02T09:43:57;20.58;61.28
69208;SHT31;70114;47.690;8.898;2023-07-02T09:46:25;20.74;60.93
69208;SHT31;70114;47.690;8.898;2023-07-02T09:48:54;20.43;60.75
69208;SHT31;70114;47.690;8.898;2023-07-02T09:51:31;20.43;60.92
69208;SHT31;70114;47.690;8.898;2023-07-02T09:54:02;20.41;60.88
69208;SHT31;70114;47.690;8.898;2023-07-02T09:56:30;20.69;60.42
69208;SHT31;70114;47.690;8.898;2023-07-02T09:59:04;20.86;60.29
69208;SHT31;70114;47.690;8.898;2023-07-02T10:01:47;20.81;60.23
69208;SHT31;70114;47.690;8.898;2023-07-02T10:04:14;20.99;60.18
69208;SHT31;70114;47.690;8.898;2023-07-02T10:09:43;21.12;59.50
69208;SHT31;70114;47.690;8.898;2023-07-02T10:12:26;21.18;59.09
69208;SHT31;70114;47.690;8.898;2023-07-02T10:15:11;21.36;59.39
69208;SHT31;70114;47.690;8.898;2023-07-02T10:30:36;21.07;58.59
69208;SHT31;70114;47.690;8.898;2023-07-02T10:33:42;21.23;58.83
69208;SHT31;70114;47.690;8.898;2023-07-02T10:36:40;21.49;58.57
69208;SHT31;70114;47.690;8.898;2023-07-02T10:39:29;21.10;58.43
69208;SHT31;70114;47.690;8.898;2023-07-02T10:42:31;21.37;59.04
69208;SHT31;70114;47.690;8.898;2023-07-02T10:45:02;21.43;58.60
69208;SHT31;70114;47.690;8.898;2023-07-02T10:47:42;21.68;58.69
69208;SHT31;70114;47.690;8.898;2023-07-02T10:50:35;21.77;58.20
69208;SHT31;70114;47.690;8.898;2023-07-02T10:53:41;21.99;57.72
69208;SHT31;70114;47.690;8.898;2023-07-02T10:56:07;21.95;57.88
69208;SHT31;70114;47.690;8.898;2023-07-02T10:58:41;21.99;57.48
69208;SHT31;70114;47.690;8.898;2023-07-02T11:01:07;21.92;56.46
69208;SHT31;70114;47.690;8.898;2023-07-02T11:03:33;21.88;56.67
69208;SHT31;70114;47.690;8.898;2023-07-02T11:06:18;21.92;56.93
69208;SHT31;70114;47.690;8.898;2023-07-02T13:11:22;24.11;51.21
69208;SHT31;70114;47.690;8.898;2023-07-02T13:13:48;24.27;50.71
69208;SHT31;70114;47.690;8.898;2023-07-02T13:16:14;24.27;50.44
69208;SHT31;70114;47.690;8.898;2023-07-02T13:18:40;24.34;49.80
69208;SHT31;70114;47.690;8.898;2023-07-02T13:21:13;24.89;49.42
69208;SHT31;70114;47.690;8.898;2023-07-02T13:23:48;25.10;48.30
69208;SHT31;70114;47.690;8.898;2023-07-02T13:26:13;25.27;47.95
69208;SHT31;70114;47.690;8.898;2023-07-02T13:28:38;25.04;47.73
69208;SHT31;70114;47.690;8.898;2023-07-02T13:31:04;25.17;48.33
69208;SHT31;70114;47.690;8.898;2023-07-02T13:33:29;25.33;47.04
69208;SHT31;70114;47.690;8.898;2023-07-02T13:35:56;25.34;46.57
69208;SHT31;70114;47.690;8.898;2023-07-02T13:38:21;25.03;45.66
69208;SHT31;70114;47.690;8.898;2023-07-02T13:40:47;25.16;46.24
69208;SHT31;70114;47.690;8.898;2023-07-02T13:43:12;25.34;46.65
69208;SHT31;70114;47.690;8.898;2023-07-02T13:45:38;25.79;46.25
69208;SHT31;70114;47.690;8.898;2023-07-02T13:48:03;25.35;46.58
69208;SHT31;70114;47.690;8.898;2023-07-02T13:50:30;25.51;44.93
69208;SHT31;70114;47.690;8.898;2023-07-02T13:52:56;25.41;45.26
69208;SHT31;70114;47.690;8.898;2023-07-02T13:55:21;25.69;44.33
69208;SHT31;70114;47.690;8.898;2023-07-02T13:57:53;25.84;45.18
69208;SHT31;70114;47.690;8.898;2023-07-02T14:00:18;25.47;45.15
69208;SHT31;70114;47.690;8.898;2023-07-02T14:02:44;25.42;45.69
69208;SHT31;70114;47.690;8.898;2023-07-02T14:05:09;25.17;46.01
69208;SHT31;70114;47.690;8.898;2023-07-02T14:07:35;25.00;46.61
69208;SHT31;70114;47.690;8.898;2023-07-02T14:10:00;25.30;46.20
69208;SHT31;70114;47.690;8.898;2023-07-02T14:12:25;25.51;45.93
69208;SHT31;70114;47.690;8.898;2023-07-02T14:14:51;25.61;45.31
69208;SHT31;70114;47.690;8.898;2023-07-02T14:17:16;25.54;44.92
69208;SHT31;70114;47.690;8.898;2023-07-02T14:19:43;26.30;44.27
69208;SHT31;70114;47.690;8.898;2023-07-02T14:22:09;26.50;43.79
69208;SHT31;70114;47.690;8.898;2023-07-02T14:24:34;26.27;43.80
69208;SHT31;70114;47.690;8.898;2023-07-02T14:27:00;26.94;43.40
69208;SHT31;70114;47.690;8.898;2023-07-02T14:29:25;27.06;42.61
69208;SHT31;70114;47.690;8.898;2023-07-02T14:31:51;27.22;41.50
69208;SHT31;70114;47.690;8.898;2023-07-02T14:34:16;27.39;41.91
69208;SHT31;70114;47.690;8.898;2023-07-02T14:36:41;27.68;40.99
69208;SHT31;70114;47.690;8.898;2023-07-02T14:39:07;27.71;41.70
69208;SHT31;70114;47.690;8.898;2023-07-02T14:41:32;28.06;40.49
69208;SHT31;70114;47.690;8.898;2023-07-02T14:44:03;27.88;40.70
69208;SHT31;70114;47.690;8.898;2023-07-02T14:46:30;27.94;39.92
69208;SHT31;70114;47.690;8.898;2023-07-02T14:48:55;27.09;41.88
69208;SHT31;70114;47.690;8.898;2023-07-02T14:51:21;26.85;43.37
69208;SHT31;70114;47.690;8.898;2023-07-02T14:53:46;27.10;43.13
69208;SHT31;70114;47.690;8.898;2023-07-02T14:56:11;27.49;42.03
69208;SHT31;70114;47.690;8.898;2023-07-02T14:58:37;27.26;41.53
69208;SHT31;70114;47.690;8.898;2023-07-02T15:01:02;27.84;41.52
69208;SHT31;70114;47.690;8.898;2023-07-02T15:03:29;27.61;40.93
69208;SHT31;70114;47.690;8.898;2023-07-02T15:06:09;28.21;40.50
69208;SHT31;70114;47.690;8.898;2023-07-02T15:08:34;27.46;42.01
69208;SHT31;70114;47.690;8.898;2023-07-02T15:11:00;27.10;42.97
69208;SHT31;70114;47.690;8.898;2023-07-02T15:13:25;26.71;43.52
69208;SHT31;70114;47.690;8.898;2023-07-02T15:15:51;26.55;43.57
69208;SHT31;70114;47.690;8.898;2023-07-02T15:18:16;26.13;44.55
69208;SHT31;70114;47.690;8.898;2023-07-02T15:20:45;26.20;44.73
69208;SHT31;70114;47.690;8.898;2023-07-02T15:23:11;26.43;44.34
69208;SHT31;70114;47.690;8.898;2023-07-02T15:25:37;26.32;45.44
69208;SHT31;70114;47.690;8.898;2023-07-02T15:28:02;26.05;45.29
69208;SHT31;70114;47.690;8.898;2023-07-02T15:30:28;26.12;45.38
69208;SHT31;70114;47.690;8.898;2023-07-02T15:32:54;25.97;45.50
69208;SHT31;70114;47.690;8.898;2023-07-02T15:35:20;25.75;44.72
69208;SHT31;70114;47.690;8.898;2023-07-02T15:37:45;26.30;43.74
69208;SHT31;70114;47.690;8.898;2023-07-02T15:40:11;26.90;43.03
69208;SHT31;70114;47.690;8.898;2023-07-02T15:42:37;27.49;42.48
69208;SHT31;70114;47.690;8.898;2023-07-02T15:45:02;27.36;41.95
69208;SHT31;70114;47.690;8.898;2023-07-02T15:47:28;27.49;42.25
69208;SHT31;70114;47.690;8.898;2023-07-02T15:49:53;27.94;42.06
69208;SHT31;70114;47.690;8.898;2023-07-02T15:52:19;27.91;41.22
69208;SHT31;70114;47.690;8.898;2023-07-02T15:54:45;28.32;40.51
69208;SHT31;70114;47.690;8.898;2023-07-02T15:57:10;28.01;41.30
69208;SHT31;70114;47.690;8.898;2023-07-02T15:59:36;28.02;41.28
69208;SHT31;70114;47.690;8.898;2023-07-02T16:02:03;27.70;42.37
69208;SHT31;70114;47.690;8.898;2023-07-02T16:04:28;27.71;41.91
69208;SHT31;70114;47.690;8.898;2023-07-02T16:06:54;27.50;42.43
69208;SHT31;70114;47.690;8.898;2023-07-02T16:09:20;27.40;41.91
69208;SHT31;70114;47.690;8.898;2023-07-02T16:11:46;27.33;42.33
69208;SHT31;70114;47.690;8.898;2023-07-02T16:14:14;27.57;41.56
69208;SHT31;70114;47.690;8.898;2023-07-02T16:16:44;27.30;41.85
69208;SHT31;70114;47.690;8.898;2023-07-02T16:19:12;27.58;41.41
69208;SHT31;70114;47.690;8.898;2023-07-02T16:21:38;27.94;40.70
69208;SHT31;70114;47.690;8.898;2023-07-02T16:24:19;28.25;39.96
69208;SHT31;70114;47.690;8.898;2023-07-02T16:26:46;28.26;40.04
69208;SHT31;70114;47.690;8.898;2023-07-02T16:29:12;28.11;39.71
69208;SHT31;70114;47.690;8.898;2023-07-02T16:31:40;27.67;40.63
69208;SHT31;70114;47.690;8.898;2023-07-02T16:34:07;27.25;42.07
69208;SHT31;70114;47.690;8.898;2023-07-02T16:36:33;27.13;41.85
69208;SHT31;70114;47.690;8.898;2023-07-02T16:38:59;27.29;41.38
69208;SHT31;70114;47.690;8.898;2023-07-02T16:41:24;27.12;42.29
69208;SHT31;70114;47.690;8.898;2023-07-02T16:43:50;27.05;41.65
69208;SHT31;70114;47.690;8.898;2023-07-02T16:46:15;26.74;41.99
69208;SHT31;70114;47.690;8.898;2023-07-02T16:48:41;26.48;43.13
69208;SHT31;70114;47.690;8.898;2023-07-02T16:51:07;26.34;43.27
69208;SHT31;70114;47.690;8.898;2023-07-02T16:53:33;25.76;44.02
69208;SHT31;70114;47.690;8.898;2023-07-02T16:56:03;25.64;44.28
69208;SHT31;70114;47.690;8.898;2023-07-02T16:58:30;25.48;44.62
69208;SHT31;70114;47.690;8.898;2023-07-02T17:01:04;25.38;45.05
69208;SHT31;70114;47.690;8.898;2023-07-02T17:03:30;25.35;45.82
69208;SHT31;70114;47.690;8.898;2023-07-02T17:05:59;25.27;45.13
69208;SHT31;70114;47.690;8.898;2023-07-02T17:08:25;24.93;44.93
69208;SHT31;70114;47.690;8.898;2023-07-02T17:10:50;24.82;45.29
69208;SHT31;70114;47.690;8.898;2023-07-02T17:13:16;25.03;45.53
69208;SHT31;70114;47.690;8.898;2023-07-02T17:15:41;25.17;45.24
69208;SHT31;70114;47.690;8.898;2023-07-02T17:18:07;25.30;44.60
69208;SHT31;70114;47.690;8.898;2023-07-02T17:20:32;25.85;44.28
69208;SHT31;70114;47.690;8.898;2023-07-02T17:22:58;26.10;43.98
69208;SHT31;70114;47.690;8.898;2023-07-02T17:25:23;25.95;43.69
69208;SHT31;70114;47.690;8.898;2023-07-02T17:27:49;25.97;43.77
69208;SHT31;70114;47.690;8.898;2023-07-02T17:30:14;26.26;43.52
69208;SHT31;70114;47.690;8.898;2023-07-02T17:32:41;26.07;43.52
69208;SHT31;70114;47.690;8.898;2023-07-02T17:35:07;25.72;43.35
69208;SHT31;70114;47.690;8.898;2023-07-02T17:37:38;26.00;43.36
69208;SHT31;70114;47.690;8.898;2023-07-02T17:40:05;25.47;44.26
69208;SHT31;70114;47.690;8.898;2023-07-02T17:42:30;25.58;44.02
69208;SHT31;70114;47.690;8.898;2023-07-02T17:44:55;25.93;43.81
69208;SHT31;70114;47.690;8.898;2023-07-02T17:47:24;25.89;44.29